sensor_id;sensor_type;location;lat;lon;timestamp;P1;durP1;ratioP1;P2;durP2;ratioP2
44885;SDS011;36669;51.428;21.162;2022-12-07T00:01:29;35.00;;;18.48;;
44885;SDS011;36669;51.428;21.162;2022-12-07T00:03:59;29.98;;;16.70;;
44885;SDS011;36669;51.428;21.162;2022-12-07T00:06:27;32.03;;;16.92;;
44885;SDS011;36669;51.428;21.162;2022-12-07T00:08:53;29.02;;;15.18;;
44885;SDS011;36669;51.428;21.162;2022-12-07T00:11:22;26.95;;;16.25;;
44885;SDS011;36669;51.428;21.162;2022-12-07T00:14:11;27.42;;;15.48;;
44885;SDS011;36669;51.428;21.162;2022-12-07T00:16:43;26.27;;;14.55;;
44885;SDS011;36669;51.428;21.162;2022-12-07T00:19:11;30.88;;;14.73;;
44885;SDS011;36669;51.428;21.162;2022-12-07T00:21:41;22.42;;;14.05;;
44885;SDS011;36669;51.428;21.162;2022-12-07T00:24:09;25.48;;;14.05;;
44885;SDS011;36669;51.428;21.162;2022-12-07T00:26:37;23.45;;;13.20;;
44885;SDS011;36669;51.428;21.162;2022-12-07T00:29:11;22.75;;;12.13;;
44885;SDS011;36669;51.428;21.162;2022-12-07T00:31:46;23.20;;;12.27;;
44885;SDS011;36669;51.428;21.162;2022-12-07T00:34:14;21.80;;;12.18;;
44885;SDS011;36669;51.428;21.162;2022-12-07T00:36:43;22.13;;;12.63;;
44885;SDS011;36669;51.428;21.162;2022-12-07T00:39:10;20.35;;;12.45;;
44885;SDS011;36669;51.428;21.162;2022-12-07T00:41:37;20.15;;;10.73;;
44885;SDS011;36669;51.428;21.162;2022-12-07T00:44:04;24.05;;;12.48;;
44885;SDS011;36669;51.428;21.162;2022-12-07T00:46:31;22.05;;;11.73;;
44885;SDS011;36669;51.428;21.162;2022-12-07T00:48:57;24.33;;;13.30;;
44885;SDS011;36669;51.428;21.162;2022-12-07T00:51:24;22.02;;;12.98;;
44885;SDS011;36669;51.428;21.162;2022-12-07T00:53:50;23.15;;;11.93;;
44885;SDS011;36669;51.428;21.162;2022-12-07T00:56:21;19.85;;;11.73;;
44885;SDS011;36669;51.428;21.162;2022-12-07T00:58:59;22.10;;;13.07;;
44885;SDS011;36669;51.428;21.162;2022-12-07T01:01:28;20.42;;;10.95;;
44885;SDS011;36669;51.428;21.162;2022-12-07T01:03:55;15.73;;;8.95;;
44885;SDS011;36669;51.428;21.162;2022-12-07T01:06:21;21.95;;;11.55;;
44885;SDS011;36669;51.428;21.162;2022-12-07T01:08:49;22.13;;;11.77;;
44885;SDS011;36669;51.428;21.162;2022-12-07T01:11:18;18.92;;;11.23;;
44885;SDS011;36669;51.428;21.162;2022-12-07T01:13:54;18.98;;;11.13;;
44885;SDS011;36669;51.428;21.162;2022-12-07T01:16:22;15.88;;;9.63;;
44885;SDS011;36669;51.428;21.162;2022-12-07T01:18:49;21.40;;;11.50;;
44885;SDS011;36669;51.428;21.162;2022-12-07T01:21:18;22.02;;;12.02;;
44885;SDS011;36669;51.428;21.162;2022-12-07T01:23:58;21.17;;;12.57;;
44885;SDS011;36669;51.428;21.162;2022-12-07T01:26:25;24.40;;;11.77;;
44885;SDS011;36669;51.428;21.162;2022-12-07T01:28:52;21.45;;;12.73;;
44885;SDS011;36669;51.428;21.162;2022-12-07T01:31:21;21.48;;;10.38;;
44885;SDS011;36669;51.428;21.162;2022-12-07T01:33:50;20.08;;;11.25;;
44885;SDS011;36669;51.428;21.162;2022-12-07T01:36:29;17.92;;;10.07;;
44885;SDS011;36669;51.428;21.162;2022-12-07T01:38:59;18.48;;;10.55;;
44885;SDS011;36669;51.428;21.162;2022-12-07T01:41:31;16.27;;;9.02;;
44885;SDS011;36669;51.428;21.162;2022-12-07T01:46:53;16.80;;;10.98;;
44885;SDS011;36669;51.428;21.162;2022-12-07T01:52:13;19.30;;;9.55;;
44885;SDS011;36669;51.428;21.162;2022-12-07T01:57:23;15.27;;;9.35;;
44885;SDS011;36669;51.428;21.162;2022-12-07T01:59:51;14.93;;;8.93;;
44885;SDS011;36669;51.428;21.162;2022-12-07T02:02:25;18.50;;;11.68;;
44885;SDS011;36669;51.428;21.162;2022-12-07T02:04:57;19.52;;;12.10;;
44885;SDS011;36669;51.428;21.162;2022-12-07T02:07:28;16.63;;;9.25;;
44885;SDS011;36669;51.428;21.162;2022-12-07T02:10:21;18.92;;;10.85;;
44885;SDS011;36669;51.428;21.162;2022-12-07T02:12:53;16.98;;;10.85;;
44885;SDS011;36669;51.428;21.162;2022-12-07T02:21:58;16.65;;;11.18;;
44885;SDS011;36669;51.428;21.162;2022-12-07T02:28:07;18.27;;;10.77;;
44885;SDS011;36669;51.428;21.162;2022-12-07T02:30:44;19.30;;;10.65;;
44885;SDS011;36669;51.428;21.162;2022-12-07T02:33:16;22.00;;;14.75;;
44885;SDS011;36669;51.428;21.162;2022-12-07T02:35:55;19.65;;;11.43;;
44885;SDS011;36669;51.428;21.162;2022-12-07T02:41:43;20.40;;;11.60;;
44885;SDS011;36669;51.428;21.162;2022-12-07T02:44:20;22.05;;;13.23;;
44885;SDS011;36669;51.428;21.162;2022-12-07T02:46:53;20.30;;;12.07;;
44885;SDS011;36669;51.428;21.162;2022-12-07T02:49:37;21.35;;;12.43;;
44885;SDS011;36669;51.428;21.162;2022-12-07T02:52:08;25.05;;;14.13;;
44885;SDS011;36669;51.428;21.162;2022-12-07T02:54:39;21.83;;;12.43;;
44885;SDS011;36669;51.428;21.162;2022-12-07T03:00:14;25.27;;;15.15;;
44885;SDS011;36669;51.428;21.162;2022-12-07T03:02:58;24.08;;;14.50;;
44885;SDS011;36669;51.428;21.162;2022-12-07T03:12:06;28.85;;;15.65;;
44885;SDS011;36669;51.428;21.162;2022-12-07T03:14:43;24.63;;;14.65;;
44885;SDS011;36669;51.428;21.162;2022-12-07T03:17:16;27.10;;;15.48;;
44885;SDS011;36669;51.428;21.162;2022-12-07T03:19:58;25.23;;;14.30;;
44885;SDS011;36669;51.428;21.162;2022-12-07T03:22:28;27.55;;;15.80;;
44885;SDS011;36669;51.428;21.162;2022-12-07T03:25:03;29.05;;;16.30;;
44885;SDS011;36669;51.428;21.162;2022-12-07T03:27:48;20.70;;;12.07;;
44885;SDS011;36669;51.428;21.162;2022-12-07T03:30:20;21.58;;;13.32;;
44885;SDS011;36669;51.428;21.162;2022-12-07T03:33:15;25.17;;;14.75;;
44885;SDS011;36669;51.428;21.162;2022-12-07T03:36:12;26.90;;;16.13;;
44885;SDS011;36669;51.428;21.162;2022-12-07T03:41:50;22.30;;;14.02;;
44885;SDS011;36669;51.428;21.162;2022-12-07T03:44:19;25.55;;;15.48;;
44885;SDS011;36669;51.428;21.162;2022-12-07T03:47:02;24.60;;;14.57;;
44885;SDS011;36669;51.428;21.162;2022-12-07T03:52:38;20.50;;;13.38;;
44885;SDS011;36669;51.428;21.162;2022-12-07T03:58:00;18.45;;;10.63;;
44885;SDS011;36669;51.428;21.162;2022-12-07T04:00:30;22.45;;;14.65;;
44885;SDS011;36669;51.428;21.162;2022-12-07T04:02:57;18.02;;;11.30;;
44885;SDS011;36669;51.428;21.162;2022-12-07T04:05:24;16.90;;;11.30;;
44885;SDS011;36669;51.428;21.162;2022-12-07T04:07:51;21.90;;;13.85;;
44885;SDS011;36669;51.428;21.162;2022-12-07T04:10:18;22.98;;;14.38;;
44885;SDS011;36669;51.428;21.162;2022-12-07T04:12:46;23.45;;;14.32;;
44885;SDS011;36669;51.428;21.162;2022-12-07T04:15:11;30.08;;;19.67;;
44885;SDS011;36669;51.428;21.162;2022-12-07T04:17:39;29.58;;;17.98;;
44885;SDS011;36669;51.428;21.162;2022-12-07T04:20:06;26.00;;;15.60;;
44885;SDS011;36669;51.428;21.162;2022-12-07T04:22:33;22.23;;;12.88;;
44885;SDS011;36669;51.428;21.162;2022-12-07T04:25:00;24.65;;;13.32;;
44885;SDS011;36669;51.428;21.162;2022-12-07T04:27:27;18.70;;;12.02;;
44885;SDS011;36669;51.428;21.162;2022-12-07T04:29:54;22.08;;;13.88;;
44885;SDS011;36669;51.428;21.162;2022-12-07T04:32:21;21.30;;;13.23;;
44885;SDS011;36669;51.428;21.162;2022-12-07T04:34:48;22.92;;;12.85;;
44885;SDS011;36669;51.428;21.162;2022-12-07T04:37:16;21.63;;;9.45;;
44885;SDS011;36669;51.428;21.162;2022-12-07T04:39:44;22.77;;;11.27;;
44885;SDS011;36669;51.428;21.162;2022-12-07T04:42:12;22.40;;;11.73;;
44885;SDS011;36669;51.428;21.162;2022-12-07T04:44:39;18.27;;;10.77;;
44885;SDS011;36669;51.428;21.162;2022-12-07T04:47:06;21.10;;;12.70;;
44885;SDS011;36669;51.428;21.162;2022-12-07T04:49:35;23.70;;;12.00;;
44885;SDS011;36669;51.428;21.162;2022-12-07T04:52:02;20.85;;;13.48;;
44885;SDS011;36669;51.428;21.162;2022-12-07T04:54:29;23.88;;;13.88;;
44885;SDS011;36669;51.428;21.162;2022-12-07T04:56:56;24.80;;;14.23;;
44885;SDS011;36669;51.428;21.162;2022-12-07T04:59:24;23.35;;;14.00;;
44885;SDS011;36669;51.428;21.162;2022-12-07T05:01:51;24.17;;;13.45;;
44885;SDS011;36669;51.428;21.162;2022-12-07T05:04:18;27.02;;;14.45;;
44885;SDS011;36669;51.428;21.162;2022-12-07T05:06:45;27.98;;;16.65;;
44885;SDS011;36669;51.428;21.162;2022-12-07T05:09:13;23.52;;;13.63;;
44885;SDS011;36669;51.428;21.162;2022-12-07T05:11:40;28.67;;;15.40;;
44885;SDS011;36669;51.428;21.162;2022-12-07T05:14:16;25.05;;;15.38;;
44885;SDS011;36669;51.428;21.162;2022-12-07T05:16:47;23.13;;;12.68;;
44885;SDS011;36669;51.428;21.162;2022-12-07T05:19:14;30.95;;;17.23;;
44885;SDS011;36669;51.428;21.162;2022-12-07T05:21:47;25.92;;;14.77;;
44885;SDS011;36669;51.428;21.162;2022-12-07T05:24:15;27.63;;;14.13;;
44885;SDS011;36669;51.428;21.162;2022-12-07T05:26:43;25.80;;;13.15;;
44885;SDS011;36669;51.428;21.162;2022-12-07T05:29:14;26.80;;;14.02;;
44885;SDS011;36669;51.428;21.162;2022-12-07T05:31:42;29.58;;;15.80;;
44885;SDS011;36669;51.428;21.162;2022-12-07T05:34:10;23.80;;;13.45;;
44885;SDS011;36669;51.428;21.162;2022-12-07T05:36:37;29.95;;;15.80;;
44885;SDS011;36669;51.428;21.162;2022-12-07T05:39:07;32.50;;;16.52;;
44885;SDS011;36669;51.428;21.162;2022-12-07T05:41:32;27.70;;;15.90;;
44885;SDS011;36669;51.428;21.162;2022-12-07T05:43:59;29.65;;;15.60;;
44885;SDS011;36669;51.428;21.162;2022-12-07T05:46:26;30.83;;;15.18;;
44885;SDS011;36669;51.428;21.162;2022-12-07T05:48:53;36.85;;;18.48;;
44885;SDS011;36669;51.428;21.162;2022-12-07T05:51:20;39.38;;;18.73;;
44885;SDS011;36669;51.428;21.162;2022-12-07T05:53:47;45.63;;;21.25;;
44885;SDS011;36669;51.428;21.162;2022-12-07T05:56:13;44.92;;;20.77;;
44885;SDS011;36669;51.428;21.162;2022-12-07T05:58:39;41.75;;;19.10;;
44885;SDS011;36669;51.428;21.162;2022-12-07T06:01:06;45.83;;;19.52;;
44885;SDS011;36669;51.428;21.162;2022-12-07T06:03:34;35.50;;;16.55;;
44885;SDS011;36669;51.428;21.162;2022-12-07T06:06:02;45.38;;;17.13;;
44885;SDS011;36669;51.428;21.162;2022-12-07T06:08:29;43.60;;;17.70;;
44885;SDS011;36669;51.428;21.162;2022-12-07T06:10:56;38.35;;;18.38;;
44885;SDS011;36669;51.428;21.162;2022-12-07T06:13:23;31.70;;;15.52;;
44885;SDS011;36669;51.428;21.162;2022-12-07T06:15:52;35.72;;;15.82;;
44885;SDS011;36669;51.428;21.162;2022-12-07T06:18:18;41.60;;;17.45;;
44885;SDS011;36669;51.428;21.162;2022-12-07T06:20:44;42.33;;;18.45;;
44885;SDS011;36669;51.428;21.162;2022-12-07T06:23:12;41.05;;;18.67;;
44885;SDS011;36669;51.428;21.162;2022-12-07T06:25:37;35.47;;;16.55;;
44885;SDS011;36669;51.428;21.162;2022-12-07T06:28:06;45.92;;;21.13;;
44885;SDS011;36669;51.428;21.162;2022-12-07T06:30:32;35.60;;;16.27;;
44885;SDS011;36669;51.428;21.162;2022-12-07T06:32:59;53.33;;;21.23;;
44885;SDS011;36669;51.428;21.162;2022-12-07T06:35:26;39.22;;;16.92;;
44885;SDS011;36669;51.428;21.162;2022-12-07T06:37:52;38.70;;;17.30;;
44885;SDS011;36669;51.428;21.162;2022-12-07T06:40:18;40.60;;;17.30;;
44885;SDS011;36669;51.428;21.162;2022-12-07T06:42:46;50.45;;;22.13;;
44885;SDS011;36669;51.428;21.162;2022-12-07T06:45:11;48.15;;;20.95;;
44885;SDS011;36669;51.428;21.162;2022-12-07T06:47:39;36.22;;;17.67;;
44885;SDS011;36669;51.428;21.162;2022-12-07T06:50:07;39.20;;;17.73;;
44885;SDS011;36669;51.428;21.162;2022-12-07T06:52:34;37.97;;;20.23;;
44885;SDS011;36669;51.428;21.162;2022-12-07T06:55:01;34.28;;;16.98;;
44885;SDS011;36669;51.428;21.162;2022-12-07T06:57:28;28.92;;;14.75;;
44885;SDS011;36669;51.428;21.162;2022-12-07T06:59:55;27.10;;;12.63;;
44885;SDS011;36669;51.428;21.162;2022-12-07T07:02:20;29.45;;;15.63;;
44885;SDS011;36669;51.428;21.162;2022-12-07T07:04:48;32.10;;;15.65;;
44885;SDS011;36669;51.428;21.162;2022-12-07T07:07:16;28.25;;;15.68;;
44885;SDS011;36669;51.428;21.162;2022-12-07T07:09:43;31.50;;;14.70;;
44885;SDS011;36669;51.428;21.162;2022-12-07T07:12:10;33.47;;;15.25;;
44885;SDS011;36669;51.428;21.162;2022-12-07T07:14:38;32.92;;;16.83;;
44885;SDS011;36669;51.428;21.162;2022-12-07T07:17:06;33.72;;;14.93;;
44885;SDS011;36669;51.428;21.162;2022-12-07T07:19:34;37.90;;;17.98;;
44885;SDS011;36669;51.428;21.162;2022-12-07T07:22:01;34.92;;;15.57;;
44885;SDS011;36669;51.428;21.162;2022-12-07T07:24:26;39.13;;;16.33;;
44885;SDS011;36669;51.428;21.162;2022-12-07T07:26:55;39.13;;;18.33;;
44885;SDS011;36669;51.428;21.162;2022-12-07T07:29:20;32.80;;;15.18;;
44885;SDS011;36669;51.428;21.162;2022-12-07T07:31:48;42.22;;;20.42;;
44885;SDS011;36669;51.428;21.162;2022-12-07T07:34:15;37.65;;;18.15;;
44885;SDS011;36669;51.428;21.162;2022-12-07T07:36:41;30.38;;;14.55;;
44885;SDS011;36669;51.428;21.162;2022-12-07T07:39:09;35.83;;;18.35;;
44885;SDS011;36669;51.428;21.162;2022-12-07T07:41:35;30.17;;;17.95;;
44885;SDS011;36669;51.428;21.162;2022-12-07T07:44:02;23.02;;;11.40;;
44885;SDS011;36669;51.428;21.162;2022-12-07T07:46:30;26.15;;;13.75;;
44885;SDS011;36669;51.428;21.162;2022-12-07T07:48:57;21.48;;;12.02;;
44885;SDS011;36669;51.428;21.162;2022-12-07T07:51:24;17.40;;;8.52;;
44885;SDS011;36669;51.428;21.162;2022-12-07T07:53:51;26.27;;;15.35;;
44885;SDS011;36669;51.428;21.162;2022-12-07T07:56:17;12.50;;;6.43;;
44885;SDS011;36669;51.428;21.162;2022-12-07T07:58:43;22.33;;;12.43;;
44885;SDS011;36669;51.428;21.162;2022-12-07T08:01:11;11.55;;;6.22;;
44885;SDS011;36669;51.428;21.162;2022-12-07T08:03:38;21.73;;;12.07;;
44885;SDS011;36669;51.428;21.162;2022-12-07T08:06:05;18.60;;;8.95;;
44885;SDS011;36669;51.428;21.162;2022-12-07T08:08:32;18.33;;;9.13;;
44885;SDS011;36669;51.428;21.162;2022-12-07T08:11:00;11.00;;;5.95;;
44885;SDS011;36669;51.428;21.162;2022-12-07T08:13:27;4.13;;;2.47;;
44885;SDS011;36669;51.428;21.162;2022-12-07T08:15:55;11.68;;;6.47;;
44885;SDS011;36669;51.428;21.162;2022-12-07T08:18:23;15.85;;;9.45;;
44885;SDS011;36669;51.428;21.162;2022-12-07T08:20:51;10.68;;;6.72;;
44885;SDS011;36669;51.428;21.162;2022-12-07T08:23:41;14.18;;;7.80;;
44885;SDS011;36669;51.428;21.162;2022-12-07T08:26:10;6.05;;;3.53;;
44885;SDS011;36669;51.428;21.162;2022-12-07T08:28:38;14.48;;;8.82;;
44885;SDS011;36669;51.428;21.162;2022-12-07T08:31:10;14.15;;;6.82;;
44885;SDS011;36669;51.428;21.162;2022-12-07T08:33:38;12.00;;;7.80;;
44885;SDS011;36669;51.428;21.162;2022-12-07T08:36:06;9.55;;;5.55;;
44885;SDS011;36669;51.428;21.162;2022-12-07T08:38:39;9.40;;;4.40;;
44885;SDS011;36669;51.428;21.162;2022-12-07T08:41:07;14.15;;;9.60;;
44885;SDS011;36669;51.428;21.162;2022-12-07T08:43:33;16.08;;;9.65;;
44885;SDS011;36669;51.428;21.162;2022-12-07T08:46:13;10.00;;;6.57;;
44885;SDS011;36669;51.428;21.162;2022-12-07T08:49:02;6.15;;;3.63;;
44885;SDS011;36669;51.428;21.162;2022-12-07T08:52:01;20.02;;;10.55;;
44885;SDS011;36669;51.428;21.162;2022-12-07T08:54:33;18.88;;;9.95;;
44885;SDS011;36669;51.428;21.162;2022-12-07T08:57:02;7.85;;;4.28;;
44885;SDS011;36669;51.428;21.162;2022-12-07T08:59:29;15.77;;;7.45;;
44885;SDS011;36669;51.428;21.162;2022-12-07T09:01:57;5.40;;;2.75;;
44885;SDS011;36669;51.428;21.162;2022-12-07T09:04:22;7.05;;;3.88;;
44885;SDS011;36669;51.428;21.162;2022-12-07T09:06:49;14.65;;;9.77;;
44885;SDS011;36669;51.428;21.162;2022-12-07T09:09:17;15.05;;;8.88;;
44885;SDS011;36669;51.428;21.162;2022-12-07T09:11:42;14.00;;;8.70;;
44885;SDS011;36669;51.428;21.162;2022-12-07T09:14:10;13.35;;;8.45;;
44885;SDS011;36669;51.428;21.162;2022-12-07T09:16:38;15.07;;;10.45;;
44885;SDS011;36669;51.428;21.162;2022-12-07T09:19:05;16.38;;;9.52;;
44885;SDS011;36669;51.428;21.162;2022-12-07T09:21:32;13.20;;;7.03;;
44885;SDS011;36669;51.428;21.162;2022-12-07T09:23:59;15.57;;;9.05;;
44885;SDS011;36669;51.428;21.162;2022-12-07T09:26:26;8.07;;;5.07;;
44885;SDS011;36669;51.428;21.162;2022-12-07T09:28:53;9.88;;;5.97;;
44885;SDS011;36669;51.428;21.162;2022-12-07T09:31:18;16.88;;;10.02;;
44885;SDS011;36669;51.428;21.162;2022-12-07T09:33:44;12.30;;;7.18;;
44885;SDS011;36669;51.428;21.162;2022-12-07T09:36:11;15.02;;;10.55;;
44885;SDS011;36669;51.428;21.162;2022-12-07T09:38:38;15.52;;;8.68;;
44885;SDS011;36669;51.428;21.162;2022-12-07T09:41:05;17.25;;;9.07;;
44885;SDS011;36669;51.428;21.162;2022-12-07T09:43:33;14.07;;;7.15;;
44885;SDS011;36669;51.428;21.162;2022-12-07T09:46:13;20.27;;;11.85;;
44885;SDS011;36669;51.428;21.162;2022-12-07T09:48:42;14.82;;;7.75;;
44885;SDS011;36669;51.428;21.162;2022-12-07T09:51:18;13.38;;;9.70;;
44885;SDS011;36669;51.428;21.162;2022-12-07T09:53:45;15.85;;;7.53;;
44885;SDS011;36669;51.428;21.162;2022-12-07T09:56:18;17.45;;;9.80;;
44885;SDS011;36669;51.428;21.162;2022-12-07T09:58:48;19.90;;;11.60;;
44885;SDS011;36669;51.428;21.162;2022-12-07T10:16:37;12.48;;;8.45;;
44885;SDS011;36669;51.428;21.162;2022-12-07T10:22:00;14.23;;;7.65;;
44885;SDS011;36669;51.428;21.162;2022-12-07T10:24:36;16.00;;;9.98;;
44885;SDS011;36669;51.428;21.162;2022-12-07T10:27:17;14.82;;;6.45;;
44885;SDS011;36669;51.428;21.162;2022-12-07T10:29:52;14.88;;;7.65;;
44885;SDS011;36669;51.428;21.162;2022-12-07T10:32:33;10.90;;;5.47;;
44885;SDS011;36669;51.428;21.162;2022-12-07T10:37:58;12.27;;;7.22;;
44885;SDS011;36669;51.428;21.162;2022-12-07T10:40:40;15.73;;;8.02;;
44885;SDS011;36669;51.428;21.162;2022-12-07T10:54:20;18.30;;;8.43;;
44885;SDS011;36669;51.428;21.162;2022-12-07T10:57:24;7.18;;;3.67;;
44885;SDS011;36669;51.428;21.162;2022-12-07T11:00:21;11.27;;;6.05;;
44885;SDS011;36669;51.428;21.162;2022-12-07T11:15:46;8.60;;;4.03;;
44885;SDS011;36669;51.428;21.162;2022-12-07T11:41:25;14.57;;;9.02;;
44885;SDS011;36669;51.428;21.162;2022-12-07T11:44:52;13.07;;;6.88;;
44885;SDS011;36669;51.428;21.162;2022-12-07T11:48:02;12.18;;;7.10;;
44885;SDS011;36669;51.428;21.162;2022-12-07T11:50:45;11.23;;;7.38;;
44885;SDS011;36669;51.428;21.162;2022-12-07T11:55:32;7.80;;;4.47;;
44885;SDS011;36669;51.428;21.162;2022-12-07T11:58:17;12.77;;;6.55;;
44885;SDS011;36669;51.428;21.162;2022-12-07T12:04:22;8.35;;;5.03;;
44885;SDS011;36669;51.428;21.162;2022-12-07T12:06:50;7.38;;;5.00;;
44885;SDS011;36669;51.428;21.162;2022-12-07T12:09:31;7.90;;;5.25;;
44885;SDS011;36669;51.428;21.162;2022-12-07T12:20:58;15.02;;;6.43;;
44885;SDS011;36669;51.428;21.162;2022-12-07T12:23:48;19.27;;;9.50;;
44885;SDS011;36669;51.428;21.162;2022-12-07T12:26:30;15.65;;;9.27;;
44885;SDS011;36669;51.428;21.162;2022-12-07T12:29:05;12.38;;;6.05;;
44885;SDS011;36669;51.428;21.162;2022-12-07T12:35:20;10.25;;;6.70;;
44885;SDS011;36669;51.428;21.162;2022-12-07T12:37:52;9.57;;;6.25;;
44885;SDS011;36669;51.428;21.162;2022-12-07T12:42:58;14.70;;;8.05;;
44885;SDS011;36669;51.428;21.162;2022-12-07T12:45:34;16.58;;;8.65;;
44885;SDS011;36669;51.428;21.162;2022-12-07T12:48:03;14.02;;;7.70;;
44885;SDS011;36669;51.428;21.162;2022-12-07T12:51:39;8.93;;;4.97;;
44885;SDS011;36669;51.428;21.162;2022-12-07T12:57:05;13.32;;;8.05;;
44885;SDS011;36669;51.428;21.162;2022-12-07T12:59:59;14.95;;;7.70;;
44885;SDS011;36669;51.428;21.162;2022-12-07T13:02:32;6.65;;;4.18;;
44885;SDS011;36669;51.428;21.162;2022-12-07T13:05:22;16.08;;;8.45;;
44885;SDS011;36669;51.428;21.162;2022-12-07T13:10:50;14.65;;;9.15;;
44885;SDS011;36669;51.428;21.162;2022-12-07T13:18:38;17.70;;;11.13;;
44885;SDS011;36669;51.428;21.162;2022-12-07T13:23:54;19.73;;;9.05;;
44885;SDS011;36669;51.428;21.162;2022-12-07T13:29:14;19.52;;;12.38;;
44885;SDS011;36669;51.428;21.162;2022-12-07T13:31:53;17.88;;;11.50;;
44885;SDS011;36669;51.428;21.162;2022-12-07T13:34:39;9.35;;;5.28;;
44885;SDS011;36669;51.428;21.162;2022-12-07T13:37:25;19.48;;;10.57;;
44885;SDS011;36669;51.428;21.162;2022-12-07T13:40:38;22.58;;;13.60;;
44885;SDS011;36669;51.428;21.162;2022-12-07T13:42:45;21.13;;;12.25;;
44885;SDS011;36669;51.428;21.162;2022-12-07T13:48:15;20.40;;;11.82;;
44885;SDS011;36669;51.428;21.162;2022-12-07T13:50:58;17.08;;;9.40;;
44885;SDS011;36669;51.428;21.162;2022-12-07T13:53:28;14.68;;;9.50;;
44885;SDS011;36669;51.428;21.162;2022-12-07T13:55:58;12.63;;;8.45;;
44885;SDS011;36669;51.428;21.162;2022-12-07T13:58:26;14.30;;;9.60;;
44885;SDS011;36669;51.428;21.162;2022-12-07T14:00:57;14.55;;;6.60;;
44885;SDS011;36669;51.428;21.162;2022-12-07T14:03:28;14.52;;;7.65;;
44885;SDS011;36669;51.428;21.162;2022-12-07T14:06:30;11.15;;;6.00;;
44885;SDS011;36669;51.428;21.162;2022-12-07T14:09:26;19.02;;;11.60;;
44885;SDS011;36669;51.428;21.162;2022-12-07T14:11:50;22.33;;;12.95;;
44885;SDS011;36669;51.428;21.162;2022-12-07T14:14:23;13.05;;;7.90;;
44885;SDS011;36669;51.428;21.162;2022-12-07T14:19:57;17.88;;;11.85;;
44885;SDS011;36669;51.428;21.162;2022-12-07T14:22:36;22.15;;;13.10;;
44885;SDS011;36669;51.428;21.162;2022-12-07T14:27:56;26.75;;;15.35;;
44885;SDS011;36669;51.428;21.162;2022-12-07T14:30:27;27.23;;;15.45;;
44885;SDS011;36669;51.428;21.162;2022-12-07T14:33:08;21.92;;;13.60;;
44885;SDS011;36669;51.428;21.162;2022-12-07T14:35:36;30.33;;;16.83;;
44885;SDS011;36669;51.428;21.162;2022-12-07T14:38:12;28.77;;;15.30;;
44885;SDS011;36669;51.428;21.162;2022-12-07T14:40:40;30.73;;;17.48;;
44885;SDS011;36669;51.428;21.162;2022-12-07T14:43:11;31.88;;;16.38;;
44885;SDS011;36669;51.428;21.162;2022-12-07T14:45:41;38.00;;;20.15;;
44885;SDS011;36669;51.428;21.162;2022-12-07T14:48:13;29.88;;;14.63;;
44885;SDS011;36669;51.428;21.162;2022-12-07T14:50:45;37.38;;;21.98;;
44885;SDS011;36669;51.428;21.162;2022-12-07T14:53:27;38.40;;;21.48;;
44885;SDS011;36669;51.428;21.162;2022-12-07T14:56:01;39.55;;;19.35;;
44885;SDS011;36669;51.428;21.162;2022-12-07T14:58:28;36.10;;;19.52;;
44885;SDS011;36669;51.428;21.162;2022-12-07T15:00:56;33.35;;;17.67;;
44885;SDS011;36669;51.428;21.162;2022-12-07T15:03:23;38.95;;;22.67;;
44885;SDS011;36669;51.428;21.162;2022-12-07T15:05:50;41.92;;;21.67;;
44885;SDS011;36669;51.428;21.162;2022-12-07T15:08:18;39.13;;;20.17;;
44885;SDS011;36669;51.428;21.162;2022-12-07T15:10:45;38.92;;;20.67;;
44885;SDS011;36669;51.428;21.162;2022-12-07T15:13:15;39.78;;;21.95;;
44885;SDS011;36669;51.428;21.162;2022-12-07T15:16:04;39.65;;;21.13;;
44885;SDS011;36669;51.428;21.162;2022-12-07T15:18:35;39.10;;;19.55;;
44885;SDS011;36669;51.428;21.162;2022-12-07T15:21:04;36.42;;;20.55;;
44885;SDS011;36669;51.428;21.162;2022-12-07T15:23:31;32.60;;;16.75;;
44885;SDS011;36669;51.428;21.162;2022-12-07T15:25:58;30.48;;;17.17;;
44885;SDS011;36669;51.428;21.162;2022-12-07T15:28:25;29.67;;;15.40;;
44885;SDS011;36669;51.428;21.162;2022-12-07T15:30:52;35.38;;;19.15;;
44885;SDS011;36669;51.428;21.162;2022-12-07T15:33:19;37.15;;;19.73;;
44885;SDS011;36669;51.428;21.162;2022-12-07T15:35:46;32.42;;;17.10;;
44885;SDS011;36669;51.428;21.162;2022-12-07T15:38:13;39.20;;;19.92;;
44885;SDS011;36669;51.428;21.162;2022-12-07T15:40:39;27.92;;;15.73;;
44885;SDS011;36669;51.428;21.162;2022-12-07T15:43:07;27.77;;;15.20;;
44885;SDS011;36669;51.428;21.162;2022-12-07T15:45:55;33.05;;;17.80;;
44885;SDS011;36669;51.428;21.162;2022-12-07T15:48:22;32.95;;;17.67;;
44885;SDS011;36669;51.428;21.162;2022-12-07T15:50:49;42.50;;;18.60;;
44885;SDS011;36669;51.428;21.162;2022-12-07T15:53:16;32.00;;;16.45;;
44885;SDS011;36669;51.428;21.162;2022-12-07T15:55:43;41.30;;;23.75;;
44885;SDS011;36669;51.428;21.162;2022-12-07T15:58:10;34.75;;;20.27;;
44885;SDS011;36669;51.428;21.162;2022-12-07T16:00:37;35.33;;;17.23;;
44885;SDS011;36669;51.428;21.162;2022-12-07T16:03:04;33.97;;;19.63;;
44885;SDS011;36669;51.428;21.162;2022-12-07T16:05:30;34.85;;;19.33;;
44885;SDS011;36669;51.428;21.162;2022-12-07T16:07:57;38.80;;;20.38;;
44885;SDS011;36669;51.428;21.162;2022-12-07T16:10:24;39.97;;;22.70;;
44885;SDS011;36669;51.428;21.162;2022-12-07T16:12:51;36.63;;;23.20;;
44885;SDS011;36669;51.428;21.162;2022-12-07T16:15:18;38.10;;;18.63;;
44885;SDS011;36669;51.428;21.162;2022-12-07T16:17:45;33.28;;;17.75;;
44885;SDS011;36669;51.428;21.162;2022-12-07T16:20:12;38.47;;;21.00;;
44885;SDS011;36669;51.428;21.162;2022-12-07T16:22:40;35.17;;;18.25;;
44885;SDS011;36669;51.428;21.162;2022-12-07T16:25:08;35.03;;;17.25;;
44885;SDS011;36669;51.428;21.162;2022-12-07T16:27:35;36.78;;;18.83;;
44885;SDS011;36669;51.428;21.162;2022-12-07T16:30:02;26.42;;;12.55;;
44885;SDS011;36669;51.428;21.162;2022-12-07T16:32:40;42.88;;;23.38;;
44885;SDS011;36669;51.428;21.162;2022-12-07T16:35:08;37.25;;;20.20;;
44885;SDS011;36669;51.428;21.162;2022-12-07T16:37:36;34.58;;;17.27;;
44885;SDS011;36669;51.428;21.162;2022-12-07T16:40:04;39.17;;;20.15;;
44885;SDS011;36669;51.428;21.162;2022-12-07T16:42:35;33.08;;;16.00;;
44885;SDS011;36669;51.428;21.162;2022-12-07T16:45:03;21.67;;;13.52;;
44885;SDS011;36669;51.428;21.162;2022-12-07T16:47:32;17.23;;;8.65;;
44885;SDS011;36669;51.428;21.162;2022-12-07T16:50:03;14.13;;;8.15;;
44885;SDS011;36669;51.428;21.162;2022-12-07T16:52:30;20.95;;;12.63;;
44885;SDS011;36669;51.428;21.162;2022-12-07T16:54:59;18.00;;;8.05;;
44885;SDS011;36669;51.428;21.162;2022-12-07T16:57:26;21.63;;;10.85;;
44885;SDS011;36669;51.428;21.162;2022-12-07T16:59:56;28.27;;;13.85;;
44885;SDS011;36669;51.428;21.162;2022-12-07T17:02:23;29.35;;;17.00;;
44885;SDS011;36669;51.428;21.162;2022-12-07T17:04:49;25.27;;;15.85;;
44885;SDS011;36669;51.428;21.162;2022-12-07T17:07:19;27.63;;;15.85;;
44885;SDS011;36669;51.428;21.162;2022-12-07T17:09:46;26.88;;;15.57;;
44885;SDS011;36669;51.428;21.162;2022-12-07T17:12:13;32.67;;;19.02;;